createdAt,value
2022-10-17T00:02:33.364Z,98477.9
2022-10-17T00:08:11.401Z,98486.5
2022-10-17T00:13:47.263Z,98497.5
2022-10-17T00:19:23.298Z,98498.2
2022-10-17T00:24:58.249Z,98515
2022-10-17T00:30:33.102Z,98525.9
2022-10-17T00:36:09.324Z,98528.9
2022-10-17T00:42:05.958Z,98535.1
2022-10-17T00:47:38.529Z,98535.2
2022-10-17T00:53:13.784Z,98535.8
2022-10-17T00:58:48.848Z,98555.6
2022-10-17T01:04:23.762Z,98564.3
2022-10-17T01:09:58.638Z,98563.9
2022-10-17T01:15:33.515Z,98562.4
2022-10-17T01:21:11.237Z,98556.5
2022-10-17T01:26:46.396Z,98568.5
2022-10-17T01:32:31.438Z,98567.8
2022-10-17T01:38:07.431Z,98576.5
2022-10-17T01:44:03.988Z,98578.7
2022-10-17T01:49:36.593Z,98579.4
2022-10-17T01:55:11.608Z,98582.9
2022-10-17T02:00:46.458Z,98580.4
2022-10-17T02:06:23.234Z,98584.3
2022-10-17T02:12:07.193Z,98577
2022-10-17T02:17:48.043Z,98586.5
2022-10-17T02:23:23.076Z,98586.6
2022-10-17T02:29:18.786Z,98579.8
2022-10-17T02:34:54.056Z,98584
2022-10-17T02:40:57.823Z,98589.5
2022-10-17T02:46:30.511Z,98595.9
2022-10-17T02:52:05.367Z,98590.9
2022-10-17T02:57:40.107Z,98590.4
2022-10-17T03:04:54.609Z,98600.1
2022-10-17T03:10:32.530Z,98621.6
2022-10-17T03:16:07.424Z,98623.5
2022-10-17T03:21:42.479Z,98620.9
2022-10-17T03:27:38.341Z,98638.7
2022-10-17T03:33:13.237Z,98658.2
2022-10-17T03:38:49.144Z,98669.1
2022-10-17T03:45:15.548Z,98681.2
2022-10-17T03:50:51.343Z,98692.4
2022-10-17T03:56:26.159Z,98714.4
2022-10-17T04:02:04.199Z,98739.1
2022-10-17T04:07:48.251Z,98750.7
2022-10-17T04:13:24.078Z,98758.7
2022-10-17T04:19:00.200Z,98787.6
2022-10-17T04:24:35.098Z,98785.9
2022-10-17T04:30:30.766Z,98802.3
2022-10-17T04:36:08.104Z,98810.6
2022-10-17T04:42:04.863Z,98793.2
2022-10-17T04:47:37.699Z,98805.7
2022-10-17T04:53:12.403Z,98818.7
2022-10-17T04:58:47.290Z,98835.6
2022-10-17T05:04:25.652Z,98856.2
2022-10-17T05:12:58.284Z,98861.2
2022-10-17T05:18:33.150Z,98863.9
2022-10-17T05:24:07.912Z,98869.8
2022-10-17T05:29:45.332Z,98864.8
2022-10-17T05:35:24.129Z,98864
2022-10-17T05:41:32.477Z,98873.2
2022-10-17T05:47:06.598Z,98872.9
2022-10-17T05:52:56.090Z,98864.3
2022-10-17T05:59:01.117Z,98880.4
2022-10-17T06:04:44.670Z,98904.2
2022-10-17T06:10:26.869Z,98921.7
2022-10-17T06:16:30.849Z,98935.2
2022-10-17T06:22:10.669Z,98958.3
2022-10-17T06:28:07.865Z,98952
2022-10-17T06:33:53.558Z,98941.3
2022-10-17T06:39:29.664Z,98948.7
2022-10-17T06:45:07.496Z,98933.8
2022-10-17T06:50:56.609Z,98926.9
2022-10-17T06:56:40.677Z,98937.3
2022-10-17T07:02:15.944Z,98964.3
2022-10-17T07:07:52.948Z,98984.3
2022-10-17T07:13:39.807Z,99012.3
2022-10-17T07:19:26.029Z,99039.7
2022-10-17T07:25:18.440Z,99030
2022-10-17T07:30:54.986Z,99034.4
2022-10-17T07:36:30.893Z,99022.3
2022-10-17T07:42:28.027Z,99005.1
2022-10-17T07:48:01.784Z,99011.6
2022-10-17T07:55:08.658Z,99021.1
2022-10-17T08:00:50.134Z,98992.4
2022-10-17T08:06:27.573Z,98980.3
2022-10-17T08:12:05.746Z,98999
2022-10-17T08:17:43.306Z,99036.9
2022-10-17T08:23:18.167Z,99023.9
2022-10-17T08:28:56.300Z,99013.8
2022-10-17T08:34:32.059Z,99015.6
2022-10-17T08:40:16.658Z,99036.4
2022-10-17T08:45:51.623Z,99022.3
2022-10-17T08:51:35.568Z,99002.8
2022-10-17T08:57:13.190Z,98994
2022-10-17T09:02:59.416Z,98990.8
2022-10-17T09:08:56.258Z,98991.8
2022-10-17T09:14:31.390Z,99011.6
2022-10-17T09:20:06.309Z,99000.8
2022-10-17T09:25:41.116Z,99001.4
2022-10-17T09:31:15.947Z,99008.8
2022-10-17T09:36:54.950Z,98981.5
2022-10-17T09:42:51.531Z,98985.4
2022-10-17T09:48:33.417Z,98999.8
2022-10-17T09:54:18.045Z,98992.8
2022-10-17T09:59:56.476Z,98982.1
2022-10-17T10:05:32.458Z,98983
2022-10-17T10:11:14.170Z,99000.7
2022-10-17T10:16:58.251Z,99008.6
2022-10-17T10:22:35.874Z,99017.2
2022-10-17T10:28:28.994Z,99009.7
2022-10-17T10:34:07.191Z,99013.4
2022-10-17T10:39:46.078Z,99010.1
2022-10-17T10:45:49.319Z,98999.5
2022-10-17T10:51:24.979Z,98991.5
2022-10-17T10:57:00.680Z,98983.5
2022-10-17T11:02:39.220Z,98992.1
2022-10-17T11:08:15.819Z,98997
2022-10-17T11:13:54.756Z,98990.3
2022-10-17T11:19:30.006Z,98995.2
2022-10-17T11:25:05.665Z,98990.6
2022-10-17T11:30:41.249Z,98986.5
2022-10-17T11:36:16.713Z,98982.5
2022-10-17T11:42:13.429Z,98984.9
2022-10-17T11:47:46.500Z,98991.7
2022-10-17T11:53:31.582Z,98987.1
2022-10-17T11:59:11.784Z,98986.7
2022-10-17T12:05:09.499Z,98982.7
2022-10-17T12:10:53.483Z,98973.5
2022-10-17T12:16:31.809Z,98970.9
2022-10-17T12:22:07.712Z,98972.4
2022-10-17T12:27:43.389Z,98970
2022-10-17T12:33:26.270Z,98975.7
2022-10-17T12:39:06.040Z,98981.5
2022-10-17T12:44:43.096Z,98967.3
2022-10-17T12:50:25.828Z,98962.6
2022-10-17T12:56:02.724Z,98961
2022-10-17T13:01:52.476Z,98946.2
2022-10-17T13:07:40.257Z,98951.2
2022-10-17T13:13:16.723Z,98945.8
2022-10-17T13:19:05.324Z,98950
2022-10-17T13:24:48.208Z,98942.7
2022-10-17T13:30:32.765Z,98948.2
2022-10-17T13:36:10.314Z,98942.8
2022-10-17T13:41:55.424Z,98957.3
2022-10-17T13:47:36.372Z,98959.9
2022-10-17T13:53:13.408Z,98961.3
2022-10-17T13:58:49.466Z,98957
2022-10-17T14:04:27.838Z,98961.5
2022-10-17T14:10:02.822Z,98970
2022-10-17T14:15:39.382Z,98980.1
2022-10-17T14:21:45.124Z,98985.7
2022-10-17T14:28:13.050Z,98989.8
2022-10-17T14:33:51.950Z,98988.8
2022-10-17T14:39:27.272Z,98992
2022-10-17T14:45:05.431Z,98990.3
2022-10-17T14:50:46.531Z,98993.5
2022-10-17T14:56:21.968Z,98990.9
2022-10-17T15:02:04.111Z,98990.9
2022-10-17T15:07:47.555Z,99004.6
2022-10-17T15:14:09.374Z,99008.5
2022-10-17T15:19:44.686Z,99006
2022-10-17T15:25:28.380Z,99008.9
2022-10-17T15:32:33.884Z,99007.8
2022-10-17T15:38:10.941Z,99005.9
2022-10-17T15:43:54.403Z,99001.2
2022-10-17T15:49:29.385Z,99000.8
2022-10-17T15:55:24.837Z,99008.2
2022-10-17T16:01:07.979Z,99017
2022-10-17T16:06:43.194Z,99030.6
2022-10-17T16:12:39.872Z,99030
2022-10-17T16:18:35.350Z,99027.6
2022-10-17T16:24:13.689Z,99036.4
2022-10-17T16:29:48.996Z,99043
2022-10-17T16:35:24.507Z,99038.8
2022-10-17T16:41:13.076Z,99044
2022-10-17T16:46:49.204Z,99052.2
2022-10-17T16:52:23.884Z,99045
2022-10-17T16:57:59.968Z,99043.4
2022-10-17T17:03:54.036Z,99060.3
2022-10-17T17:09:28.815Z,99066.7
2022-10-17T17:15:03.822Z,99063.1
2022-10-17T17:20:50.036Z,99065.6
2022-10-17T17:26:27.772Z,99073.1
2022-10-17T17:32:23.603Z,99076.4
2022-10-17T17:37:58.460Z,99079.9
2022-10-17T17:43:55.122Z,99086.5
2022-10-17T17:49:27.701Z,99096.6
2022-10-17T17:55:02.638Z,99103.3
2022-10-17T18:00:46.575Z,99109.3
2022-10-17T18:06:23.879Z,99116.9
2022-10-17T18:11:59.585Z,99115
2022-10-17T18:17:34.461Z,99130.9
2022-10-17T18:23:10.668Z,99149.6
2022-10-17T18:28:45.766Z,99154.9
2022-10-17T18:34:20.620Z,99162.4
2022-10-17T18:39:55.484Z,99171.5
2022-10-17T18:45:31.843Z,99179.8
2022-10-17T18:51:07.597Z,99199.4
2022-10-17T18:56:42.431Z,99186.6
2022-10-17T19:02:17.344Z,99203.5
2022-10-17T19:07:57.298Z,99217.5
2022-10-17T19:13:32.533Z,99237.9
2022-10-17T19:19:08.781Z,99254.4
2022-10-17T19:24:43.812Z,99285.9
2022-10-17T19:30:26.251Z,99352.1
2022-10-17T19:36:04.576Z,99397
2022-10-17T19:42:07.681Z,99407.2
2022-10-17T19:47:40.428Z,99461.2
2022-10-17T19:53:18.365Z,99465.3
2022-10-17T19:59:18.683Z,99424.1
2022-10-17T20:05:19.300Z,99334
2022-10-17T20:11:04.055Z,99344.4
2022-10-17T20:16:55.139Z,99351.6
2022-10-17T20:22:31.932Z,99322.1
2022-10-17T20:28:07.829Z,99326.4
2022-10-17T20:33:43.783Z,99316.1
2022-10-17T20:39:27.725Z,99323.5
2022-10-17T20:45:12.334Z,99310.5
2022-10-17T20:50:58.787Z,99327.8
2022-10-17T20:56:49.565Z,99316.2
2022-10-17T21:02:43.650Z,99297.5
2022-10-17T21:08:18.967Z,99297
2022-10-17T21:13:54.108Z,99295.7
2022-10-17T21:19:29.202Z,99305.1
2022-10-17T21:25:05.068Z,99293.8
2022-10-17T21:30:40.345Z,99284.4
2022-10-17T21:36:16.229Z,99289.4
2022-10-17T21:42:13.021Z,99290.5
2022-10-17T21:48:13.700Z,99289.3
2022-10-17T21:53:48.913Z,99279.4
2022-10-17T21:59:23.758Z,99282.6
2022-10-17T22:04:58.727Z,99282.7
2022-10-17T22:10:33.565Z,99282.5
2022-10-17T22:16:08.627Z,99284.8
2022-10-17T22:21:43.548Z,99272.9
2022-10-17T22:27:18.947Z,99267.6
2022-10-17T22:33:03.524Z,99265.1
2022-10-17T22:38:38.537Z,99265.7
2022-10-17T22:44:13.487Z,99247.8
2022-10-17T22:49:49.574Z,99244
2022-10-17T22:55:24.721Z,99233.2
2022-10-17T23:00:59.572Z,99237.5
2022-10-17T23:06:34.916Z,99235
2022-10-17T23:12:10.430Z,99223.5
2022-10-17T23:17:45.220Z,99223.8
2022-10-17T23:23:19.856Z,99232.3
2022-10-17T23:28:55.631Z,99217.2
2022-10-17T23:34:31.041Z,99215.9
2022-10-17T23:40:05.815Z,99216.1
2022-10-17T23:51:16.602Z,99205.8
2022-10-17T23:56:51.658Z,99205.3
